Time;durP1;ratioP1;P1;durP2;ratioP2;P2;SDS_P1;SDS_P2;PMS_P1;PMS_P2;Temp;Humidity;BMP_temperature;BMP_pressure;BME280_temperature;BME280_humidity;BME280_pressure;Samples;Min_cycle;Max_cycle;Signal;HPM_P1;HPM_P2
2021/11/07 00:00:19;;;;;;;9.13;8.18;;;9.30;1.00;;;;;;4989639;28;20237;-86
2021/11/07 00:02:54;;;;;;;10.60;9.00;;;9.30;1.00;;;;;;4968832;28;20228;-85
2021/11/07 00:05:27;;;;;;;8.10;7.28;;;9.30;1.00;;;;;;4971734;28;20264;-85
2021/11/07 00:08:06;;;;;;;8.70;7.80;;;9.20;1.00;;;;;;4972713;28;20240;-85
2021/11/07 00:10:39;;;;;;;8.18;7.38;;;9.20;1.00;;;;;;4965154;28;20265;-85
2021/11/07 00:13:15;;;;;;;8.47;7.23;;;9.20;1.00;;;;;;4957748;28;20308;-86
2021/11/07 00:15:42;;;;;;;10.73;8.40;;;9.20;1.00;;;;;;4974837;28;20568;-86
2021/11/07 00:18:12;;;;;;;8.70;7.47;;;9.20;1.00;;;;;;4975472;28;20547;-86
2021/11/07 00:20:44;;;;;;;9.50;7.75;;;9.10;1.00;;;;;;4958259;28;20362;-86
2021/11/07 00:23:20;;;;;;;11.02;8.35;;;9.10;1.00;;;;;;4979416;28;20241;-85
2021/11/07 00:25:52;;;;;;;10.98;8.00;;;9.10;1.00;;;;;;4986264;28;20295;-86
2021/11/07 00:28:25;;;;;;;8.55;7.65;;;9.00;1.00;;;;;;5001214;28;20295;-86
2021/11/07 00:30:59;;;;;;;9.63;8.02;;;9.00;1.00;;;;;;4993732;28;20234;-86
2021/11/07 00:33:38;;;;;;;8.40;7.47;;;9.00;1.00;;;;;;4993671;28;20271;-85
2021/11/07 00:36:14;;;;;;;8.40;7.40;;;9.00;1.00;;;;;;4978504;28;20455;-86
2021/11/07 00:38:47;;;;;;;8.35;7.55;;;9.00;1.00;;;;;;4973705;28;20467;-85
2021/11/07 00:41:23;;;;;;;8.65;7.20;;;9.00;1.00;;;;;;4969263;28;20232;-86
2021/11/07 00:43:57;;;;;;;9.85;8.15;;;9.00;1.00;;;;;;4960526;28;20307;-85
2021/11/07 00:46:27;;;;;;;8.82;7.50;;;9.10;1.00;;;;;;4978487;28;20232;-85
2021/11/07 00:48:57;;;;;;;9.82;7.50;;;9.10;1.00;;;;;;4966916;28;20734;-85
2021/11/07 00:51:29;;;;;;;11.10;8.75;;;9.00;1.00;;;;;;4975459;28;20255;-85
2021/11/07 00:54:11;;;;;;;9.27;8.32;;;9.00;1.00;;;;;;4981119;28;20277;-85
2021/11/07 00:56:42;;;;;;;11.52;9.30;;;9.00;1.00;;;;;;4976961;28;20234;-85
2021/11/07 00:59:18;;;;;;;11.05;8.35;;;9.00;1.00;;;;;;5001799;28;20228;-85
2021/11/07 01:01:50;;;;;;;11.55;8.85;;;8.90;1.00;;;;;;4995506;28;20235;-85
2021/11/07 01:04:17;;;;;;;11.00;9.23;;;8.90;1.00;;;;;;4970851;28;20231;-84
2021/11/07 01:06:44;;;;;;;10.68;9.20;;;8.70;1.00;;;;;;4950042;28;20573;-85
2021/11/07 01:09:13;;;;;;;10.30;9.20;;;8.70;1.00;;;;;;4956836;28;20354;-85
2021/11/07 01:11:41;;;;;;;13.50;9.60;;;8.60;1.00;;;;;;4971547;28;20226;-85
2021/11/07 01:14:10;;;;;;;11.02;9.35;;;8.60;1.00;;;;;;4970392;28;20518;-85
2021/11/07 01:16:37;;;;;;;10.95;8.90;;;8.60;1.00;;;;;;4959411;28;20243;-85
2021/11/07 01:19:05;;;;;;;11.00;8.35;;;8.50;1.00;;;;;;4968456;28;20239;-85
2021/11/07 01:21:35;;;;;;;10.95;8.50;;;8.50;1.00;;;;;;4963793;28;20335;-85
2021/11/07 01:24:05;;;;;;;8.32;7.50;;;8.50;1.00;;;;;;4970209;28;20765;-85
2021/11/07 01:26:35;;;;;;;13.60;9.15;;;8.50;1.00;;;;;;4970950;28;20726;-85
2021/11/07 01:29:11;;;;;;;10.98;8.13;;;8.50;1.00;;;;;;4975513;28;20737;-85
2021/11/07 01:31:39;;;;;;;11.23;9.13;;;8.50;1.00;;;;;;4971251;28;20354;-85
2021/11/07 01:34:10;;;;;;;9.55;8.20;;;8.50;1.00;;;;;;4958922;28;20232;-86
2021/11/07 01:36:41;;;;;;;9.68;8.68;;;8.50;1.00;;;;;;4957727;28;20242;-86
2021/11/07 01:39:17;;;;;;;12.18;9.05;;;8.50;1.00;;;;;;4962855;28;20246;-86
2021/11/07 01:41:58;;;;;;;9.25;8.30;;;8.40;1.00;;;;;;4953573;28;20265;-86
2021/11/07 01:44:36;;;;;;;10.63;7.68;;;8.40;1.00;;;;;;4949238;28;21650;-85
2021/11/07 01:47:03;;;;;;;11.35;8.70;;;8.40;1.00;;;;;;4962085;28;20239;-83
2021/11/07 01:49:35;;;;;;;8.80;7.90;;;8.40;1.00;;;;;;4993409;28;20304;-84
2021/11/07 01:52:04;;;;;;;11.90;8.63;;;8.40;1.00;;;;;;4980408;28;20237;-85
2021/11/07 01:54:35;;;;;;;9.57;7.82;;;8.40;1.00;;;;;;4971145;28;21079;-83
2021/11/07 01:57:01;;;;;;;10.40;8.50;;;8.50;1.00;;;;;;4951843;28;20255;-84
2021/11/07 01:59:30;;;;;;;10.05;8.23;;;8.50;1.00;;;;;;4948573;28;20346;-84
2021/11/07 02:01:59;;;;;;;9.80;7.50;;;8.60;1.00;;;;;;4972164;28;20230;-84
2021/11/07 02:04:26;;;;;;;9.20;8.30;;;8.60;1.00;;;;;;4968584;28;20221;-84
2021/11/07 02:06:53;;;;;;;11.07;8.05;;;8.60;1.00;;;;;;4974358;28;20233;-85
2021/11/07 02:09:20;;;;;;;8.77;7.85;;;8.60;1.00;;;;;;4972556;28;20913;-83
2021/11/07 02:11:47;;;;;;;10.13;8.15;;;8.60;1.00;;;;;;4964991;28;20227;-85
2021/11/07 02:14:14;;;;;;;9.80;7.70;;;8.60;1.00;;;;;;4966140;28;20335;-81
2021/11/07 02:16:42;;;;;;;8.85;7.38;;;8.60;1.00;;;;;;4966693;28;20217;-82
2021/11/07 02:19:14;;;;;;;9.60;7.47;;;8.70;1.00;;;;;;4970096;28;20223;-82
2021/11/07 02:21:43;;;;;;;11.07;7.68;;;8.60;1.00;;;;;;4971128;28;20257;-81
2021/11/07 02:24:14;;;;;;;9.52;7.60;;;8.70;1.00;;;;;;4971170;28;20295;-81
2021/11/07 02:26:42;;;;;;;9.10;7.50;;;8.70;1.00;;;;;;4956600;28;20269;-82
2021/11/07 02:29:09;;;;;;;10.32;8.50;;;8.70;1.00;;;;;;4964079;28;20468;-82
2021/11/07 02:31:37;;;;;;;8.38;7.05;;;8.70;1.00;;;;;;4986358;28;20222;-82
2021/11/07 02:34:04;;;;;;;11.20;7.22;;;8.70;1.00;;;;;;4976903;28;20275;-83
2021/11/07 02:36:31;;;;;;;12.32;9.63;;;8.70;1.00;;;;;;4980179;28;20244;-82
2021/11/07 02:38:59;;;;;;;9.75;7.60;;;8.70;1.00;;;;;;4981392;28;20232;-82
2021/11/07 02:41:26;;;;;;;7.97;6.95;;;8.70;1.00;;;;;;4979793;28;20237;-82
2021/11/07 02:43:55;;;;;;;9.40;6.72;;;8.70;1.00;;;;;;4987311;28;20288;-82
2021/11/07 02:46:23;;;;;;;9.00;7.95;;;8.70;1.00;;;;;;4996204;28;20247;-82
2021/11/07 02:48:53;;;;;;;10.05;7.70;;;8.70;1.00;;;;;;4961793;28;20323;-81
2021/11/07 02:51:24;;;;;;;8.05;7.25;;;8.70;1.00;;;;;;5003245;28;20686;-82
2021/11/07 02:53:51;;;;;;;10.40;7.72;;;8.70;1.00;;;;;;5001092;28;20224;-81
2021/11/07 02:56:19;;;;;;;9.38;6.63;;;8.70;1.00;;;;;;4971436;28;20981;-81
2021/11/07 02:58:47;;;;;;;8.50;6.75;;;8.70;1.00;;;;;;4974693;28;20232;-82
2021/11/07 03:01:15;;;;;;;8.52;7.63;;;8.70;1.00;;;;;;4960779;28;20236;-82
2021/11/07 03:03:43;;;;;;;7.97;6.78;;;8.70;1.00;;;;;;4963090;28;20238;-82
2021/11/07 03:06:09;;;;;;;8.98;7.28;;;8.80;1.00;;;;;;4958897;28;21471;-81
2021/11/07 03:08:42;;;;;;;9.60;7.13;;;8.80;1.00;;;;;;4972130;28;21114;-83
2021/11/07 03:11:10;;;;;;;8.25;6.90;;;8.80;1.00;;;;;;4979577;28;20231;-82
2021/11/07 03:13:38;;;;;;;7.68;6.93;;;8.80;1.00;;;;;;4981832;28;20229;-83
2021/11/07 03:16:07;;;;;;;8.68;6.47;;;8.90;1.00;;;;;;4985743;28;20348;-82
2021/11/07 03:18:35;;;;;;;7.85;6.80;;;8.90;1.00;;;;;;4988364;28;20513;-81
2021/11/07 03:21:02;;;;;;;8.35;6.75;;;8.90;1.00;;;;;;4999520;28;20257;-82
2021/11/07 03:23:30;;;;;;;9.32;8.35;;;8.90;1.00;;;;;;4986869;28;20281;-82
2021/11/07 03:26:03;;;;;;;7.60;6.80;;;8.90;1.00;;;;;;4994762;28;20230;-82
2021/11/07 03:28:31;;;;;;;8.00;7.20;;;8.80;1.00;;;;;;4983442;28;20228;-82
2021/11/07 03:31:05;;;;;;;8.10;6.57;;;8.90;1.00;;;;;;4972789;28;21012;-84
2021/11/07 03:33:37;;;;;;;7.45;6.47;;;8.80;1.00;;;;;;4978078;28;20228;-84
2021/11/07 03:36:06;;;;;;;8.27;5.95;;;8.80;1.00;;;;;;4977674;28;20254;-82
2021/11/07 03:38:34;;;;;;;10.15;7.63;;;8.90;1.00;;;;;;4973816;28;20224;-82
2021/11/07 03:41:00;;;;;;;7.45;6.65;;;8.80;1.00;;;;;;4976979;28;20809;-83
2021/11/07 03:43:28;;;;;;;10.55;7.32;;;8.80;1.00;;;;;;4977155;28;20229;-84
2021/11/07 03:45:56;;;;;;;6.13;5.47;;;8.80;1.00;;;;;;4968217;28;20224;-83
2021/11/07 03:48:24;;;;;;;7.70;6.90;;;8.80;1.00;;;;;;4990637;28;20233;-84
2021/11/07 03:50:51;;;;;;;7.38;6.25;;;8.90;1.00;;;;;;4999862;28;20363;-85
2021/11/07 03:53:18;;;;;;;6.50;5.72;;;8.90;1.00;;;;;;4973140;28;21045;-83
2021/11/07 03:55:45;;;;;;;8.32;6.70;;;8.90;1.00;;;;;;4972259;28;21017;-83
2021/11/07 03:58:12;;;;;;;8.38;7.00;;;8.90;1.00;;;;;;4976480;28;20224;-83
2021/11/07 04:00:39;;;;;;;9.48;7.22;;;8.90;1.00;;;;;;4967857;28;20228;-83
2021/11/07 04:03:06;;;;;;;8.13;6.20;;;9.00;1.00;;;;;;4978216;28;20648;-85
2021/11/07 04:05:34;;;;;;;7.30;6.50;;;8.90;1.00;;;;;;4964378;28;20448;-83
2021/11/07 04:08:01;;;;;;;7.15;6.20;;;8.90;1.00;;;;;;4979276;28;20321;-83
2021/11/07 04:10:28;;;;;;;7.60;6.25;;;8.90;1.00;;;;;;4975962;28;20263;-84
2021/11/07 04:12:56;;;;;;;8.27;6.53;;;8.90;1.00;;;;;;4977012;28;20233;-84
2021/11/07 04:15:25;;;;;;;9.38;7.05;;;8.80;1.00;;;;;;4972634;28;20226;-84
2021/11/07 04:17:52;;;;;;;7.47;6.50;;;8.70;1.00;;;;;;4975716;28;20232;-83
2021/11/07 04:20:20;;;;;;;9.50;7.68;;;8.60;1.00;;;;;;4972391;28;20237;-83
2021/11/07 04:22:49;;;;;;;9.40;7.35;;;8.50;1.00;;;;;;4975030;28;21000;-84
2021/11/07 04:25:16;;;;;;;8.98;6.85;;;8.40;1.00;;;;;;4968105;28;20225;-82
2021/11/07 04:27:42;;;;;;;9.27;7.10;;;8.40;1.00;;;;;;4976157;28;20350;-83
2021/11/07 04:30:10;;;;;;;8.45;7.10;;;8.30;1.00;;;;;;4960152;28;21181;-83
2021/11/07 04:32:38;;;;;;;8.35;7.10;;;8.30;1.00;;;;;;4972685;28;20238;-82
2021/11/07 04:35:07;;;;;;;8.05;6.95;;;8.20;1.00;;;;;;4977528;28;20276;-81
2021/11/07 04:37:33;;;;;;;7.60;6.70;;;8.20;1.00;;;;;;4966580;28;20228;-83
2021/11/07 04:40:01;;;;;;;8.00;7.10;;;8.10;1.00;;;;;;4973500;28;20228;-82
2021/11/07 04:42:28;;;;;;;7.40;6.18;;;8.10;1.00;;;;;;4972149;28;20238;-82
2021/11/07 04:44:55;;;;;;;8.25;6.65;;;8.10;1.00;;;;;;4977431;28;20314;-82
2021/11/07 04:47:21;;;;;;;6.50;5.80;;;8.10;1.00;;;;;;5000764;28;20293;-83
2021/11/07 04:49:51;;;;;;;8.00;7.05;;;8.10;1.00;;;;;;4990554;28;20311;-82
2021/11/07 04:52:17;;;;;;;10.07;7.38;;;8.10;1.00;;;;;;4969207;28;20232;-84
2021/11/07 04:54:44;;;;;;;8.52;7.15;;;8.10;1.00;;;;;;4976081;28;20246;-82
2021/11/07 04:57:12;;;;;;;7.75;6.47;;;8.10;1.00;;;;;;4979107;28;20975;-82
2021/11/07 04:59:39;;;;;;;8.23;6.63;;;8.20;1.00;;;;;;4990442;28;20246;-83
2021/11/07 05:02:06;;;;;;;8.15;6.95;;;8.10;1.00;;;;;;4989595;28;20233;-82
2021/11/07 05:04:34;;;;;;;7.00;5.70;;;8.20;1.00;;;;;;4992133;28;20240;-82
2021/11/07 05:07:02;;;;;;;11.65;7.60;;;8.20;1.00;;;;;;4982617;28;20437;-82
2021/11/07 05:09:28;;;;;;;8.43;7.57;;;8.20;1.00;;;;;;4975390;28;20275;-81
2021/11/07 05:11:55;;;;;;;8.07;6.82;;;8.20;1.00;;;;;;4979084;28;20264;-82
2021/11/07 05:14:23;;;;;;;8.45;6.68;;;8.30;1.00;;;;;;4979637;28;20224;-82
2021/11/07 05:16:50;;;;;;;7.72;6.90;;;8.30;1.00;;;;;;4978965;28;22185;-83
2021/11/07 05:19:16;;;;;;;7.75;6.28;;;8.30;1.00;;;;;;4982708;28;20238;-82
2021/11/07 05:21:44;;;;;;;7.30;6.22;;;8.40;1.00;;;;;;4988910;28;20228;-83
2021/11/07 05:24:10;;;;;;;9.20;6.10;;;8.40;1.00;;;;;;4985249;28;20267;-83
2021/11/07 05:26:37;;;;;;;7.10;6.00;;;8.50;1.00;;;;;;4978080;28;20228;-82
2021/11/07 05:29:05;;;;;;;9.43;5.70;;;8.50;1.00;;;;;;4977095;28;20291;-83
2021/11/07 05:31:35;;;;;;;7.40;5.22;;;8.50;1.00;;;;;;4973951;28;20238;-83
2021/11/07 05:34:02;;;;;;;7.63;5.80;;;8.60;1.00;;;;;;4977266;28;20968;-84
2021/11/07 05:36:29;;;;;;;9.13;6.10;;;8.70;1.00;;;;;;4963095;28;20810;-84
2021/11/07 05:38:55;;;;;;;8.23;6.25;;;8.70;1.00;;;;;;4965885;28;20229;-84
2021/11/07 05:41:22;;;;;;;8.15;6.10;;;8.80;1.00;;;;;;4977746;28;20223;-83
2021/11/07 05:43:49;;;;;;;7.18;5.80;;;8.80;1.00;;;;;;4974176;28;20227;-84
2021/11/07 05:46:16;;;;;;;8.10;5.20;;;8.90;1.00;;;;;;4970917;28;20234;-83
2021/11/07 05:48:44;;;;;;;7.82;5.57;;;8.90;1.00;;;;;;4973238;28;20239;-82
2021/11/07 05:51:11;;;;;;;6.63;5.45;;;9.00;1.00;;;;;;4976867;28;20243;-83
2021/11/07 05:53:39;;;;;;;6.47;5.30;;;9.00;1.00;;;;;;4969413;28;21280;-83
2021/11/07 05:56:07;;;;;;;5.07;4.55;;;9.00;1.00;;;;;;4966904;28;20294;-83
2021/11/07 05:58:34;;;;;;;6.78;5.50;;;9.10;1.00;;;;;;4969178;28;20280;-83
2021/11/07 06:01:00;;;;;;;5.53;4.90;;;9.10;1.00;;;;;;4961601;28;20221;-82
2021/11/07 06:03:27;;;;;;;5.78;4.70;;;9.10;1.00;;;;;;4956118;28;21042;-83
2021/11/07 06:05:55;;;;;;;5.30;4.80;;;9.20;1.00;;;;;;4960928;28;20235;-83
2021/11/07 06:08:22;;;;;;;6.20;4.63;;;9.20;1.00;;;;;;4955845;28;20244;-83
2021/11/07 06:10:49;;;;;;;6.07;4.72;;;9.20;1.00;;;;;;4967263;28;20387;-82
2021/11/07 06:13:16;;;;;;;5.53;4.32;;;9.20;1.00;;;;;;4969542;28;20235;-83
2021/11/07 06:15:43;;;;;;;6.00;4.93;;;9.20;1.00;;;;;;4969187;28;20233;-82
2021/11/07 06:18:10;;;;;;;6.90;4.72;;;9.30;1.00;;;;;;4973619;28;20899;-83
2021/11/07 06:20:37;;;;;;;4.93;4.20;;;9.30;1.00;;;;;;4954341;28;20321;-83
2021/11/07 06:23:05;;;;;;;7.10;5.40;;;9.30;1.00;;;;;;4966199;28;21340;-83
2021/11/07 06:25:32;;;;;;;5.50;4.97;;;9.30;1.00;;;;;;4975049;28;20476;-83
2021/11/07 06:27:59;;;;;;;7.07;5.00;;;9.40;1.00;;;;;;4957786;28;20975;-82
2021/11/07 06:30:27;;;;;;;6.28;4.63;;;9.40;1.00;;;;;;4972623;28;20255;-82
2021/11/07 06:32:54;;;;;;;6.60;5.17;;;9.40;1.00;;;;;;4998090;28;20234;-83
2021/11/07 06:35:21;;;;;;;5.40;4.90;;;9.40;1.00;;;;;;4992098;28;20451;-84
2021/11/07 06:37:47;;;;;;;6.40;5.32;;;9.40;1.00;;;;;;4958488;28;20470;-83
2021/11/07 06:40:16;;;;;;;6.88;5.35;;;9.30;1.00;;;;;;4972089;28;21194;-83
2021/11/07 06:42:43;;;;;;;5.43;4.72;;;9.30;1.00;;;;;;4952251;28;20320;-83
2021/11/07 06:45:11;;;;;;;6.95;5.35;;;9.30;1.00;;;;;;4969130;28;20231;-82
2021/11/07 06:47:37;;;;;;;7.25;5.20;;;9.30;1.00;;;;;;4972563;28;20235;-84
2021/11/07 06:50:06;;;;;;;6.07;5.30;;;9.20;1.00;;;;;;4972364;28;20320;-83
2021/11/07 06:52:33;;;;;;;6.85;5.70;;;9.00;1.00;;;;;;4972072;28;20230;-85
2021/11/07 06:55:01;;;;;;;7.15;5.88;;;8.90;1.00;;;;;;4972064;28;20234;-84
2021/11/07 06:57:30;;;;;;;6.55;5.95;;;8.70;1.00;;;;;;4973640;28;20948;-86
2021/11/07 06:59:57;;;;;;;6.60;6.00;;;8.60;1.00;;;;;;4973102;28;20225;-84
2021/11/07 07:02:23;;;;;;;6.63;5.93;;;8.50;1.00;;;;;;4962859;28;20279;-84
2021/11/07 07:04:51;;;;;;;6.90;5.68;;;8.50;1.00;;;;;;4976007;28;20461;-84
2021/11/07 07:07:19;;;;;;;8.32;6.78;;;8.50;1.00;;;;;;4964281;28;20805;-82
2021/11/07 07:09:48;;;;;;;7.40;6.32;;;8.40;1.00;;;;;;4976042;28;20238;-83
2021/11/07 07:12:20;;;;;;;10.55;7.00;;;8.40;1.00;;;;;;4990996;28;20223;-84
2021/11/07 07:14:54;;;;;;;6.97;5.97;;;8.40;1.00;;;;;;4998133;28;20231;-85
2021/11/07 07:17:29;;;;;;;9.25;6.40;;;8.40;1.00;;;;;;4974329;28;20289;-85
2021/11/07 07:20:15;;;;;;;7.47;6.18;;;8.40;1.00;;;;;;4971633;28;20216;-84
2021/11/07 07:25:41;;;;;;;8.23;5.60;;;8.40;1.00;;;;;;4935713;28;20299;-84
2021/11/07 07:28:22;;;;;;;8.63;6.10;;;8.40;1.00;;;;;;4959145;28;20368;-84
2021/11/07 07:31:12;;;;;;;8.50;6.88;;;8.40;1.00;;;;;;4974697;28;20239;-83
2021/11/07 07:33:44;;;;;;;8.18;6.68;;;8.40;1.00;;;;;;4975269;28;20224;-84
2021/11/07 07:36:10;;;;;;;8.20;6.20;;;8.50;1.00;;;;;;4973815;28;20443;-84
2021/11/07 07:38:37;;;;;;;7.88;6.50;;;8.50;1.00;;;;;;4953184;28;21080;-83
2021/11/07 07:41:04;;;;;;;7.45;5.97;;;8.50;1.00;;;;;;4973304;28;20262;-83
2021/11/07 07:43:32;;;;;;;7.90;5.70;;;8.50;1.00;;;;;;4972379;28;20228;-82
2021/11/07 07:46:03;;;;;;;8.20;5.67;;;8.50;1.00;;;;;;4971795;28;20241;-82
2021/11/07 07:48:30;;;;;;;8.27;5.88;;;8.50;1.00;;;;;;4970316;28;20455;-84
2021/11/07 07:50:57;;;;;;;5.88;5.28;;;8.50;1.00;;;;;;4972317;28;20299;-85
2021/11/07 07:53:24;;;;;;;6.80;5.63;;;8.50;1.00;;;;;;4969999;28;20328;-83
2021/11/07 07:55:51;;;;;;;7.65;6.28;;;8.50;1.00;;;;;;4975712;28;20542;-84
2021/11/07 07:58:18;;;;;;;7.70;6.32;;;8.40;1.00;;;;;;4976521;28;20225;-83
2021/11/07 08:00:45;;;;;;;8.38;6.20;;;8.50;1.00;;;;;;4997253;28;20267;-84
2021/11/07 08:03:13;;;;;;;8.23;6.15;;;8.50;1.00;;;;;;4981660;28;20216;-85
2021/11/07 08:05:40;;;;;;;7.38;6.50;;;8.50;1.00;;;;;;4967142;28;20250;-83
2021/11/07 08:08:06;;;;;;;9.27;6.80;;;8.50;1.00;;;;;;4979515;28;20394;-83
2021/11/07 08:13:39;;;;;;;7.78;5.88;;;8.60;1.00;;;;;;4962978;28;20234;-82
2021/11/07 08:16:06;;;;;;;10.67;7.03;;;8.60;1.00;;;;;;4965309;28;20252;-83
2021/11/07 08:18:35;;;;;;;6.32;5.45;;;8.60;1.00;;;;;;4976392;28;20442;-83
2021/11/07 08:21:40;;;;;;;6.38;5.65;;;8.60;1.00;;;;;;4988380;28;20228;-83
2021/11/07 08:26:53;;;;;;;7.05;6.25;;;8.50;1.00;;;;;;4984758;28;21958;-83
2021/11/07 08:29:27;;;;;;;7.43;5.97;;;8.60;1.00;;;;;;4997878;28;20214;-83
2021/11/07 08:31:54;;;;;;;7.78;5.68;;;8.60;1.00;;;;;;4983977;28;20258;-83
2021/11/07 08:34:29;;;;;;;10.02;6.43;;;8.60;1.00;;;;;;4990549;28;20219;-83
2021/11/07 08:37:00;;;;;;;7.80;6.25;;;8.70;1.00;;;;;;4984541;28;20208;-83
2021/11/07 08:39:31;;;;;;;7.63;6.25;;;8.80;1.00;;;;;;4986531;28;20243;-84
2021/11/07 08:41:59;;;;;;;7.50;6.33;;;8.90;1.00;;;;;;4994135;28;20235;-83
2021/11/07 09:01:05;;;;;;;11.05;7.00;;;9.40;1.00;;;;;;4989741;28;20248;-82
2021/11/07 09:03:44;;;;;;;6.20;5.23;;;9.50;1.00;;;;;;4966672;28;20349;-83
2021/11/07 09:09:09;;;;;;;7.53;5.93;;;9.80;1.00;;;;;;4960405;28;20435;-85
2021/11/07 09:11:36;;;;;;;7.43;6.13;;;9.90;1.00;;;;;;4970031;28;20469;-84
2021/11/07 09:14:04;;;;;;;6.83;5.13;;;10.00;1.00;;;;;;4986048;28;20507;-83
2021/11/07 09:16:31;;;;;;;7.80;5.03;;;10.00;1.00;;;;;;4988347;28;20454;-84
2021/11/07 09:19:00;;;;;;;6.40;4.70;;;10.00;1.00;;;;;;4975142;28;20446;-82
2021/11/07 09:21:33;;;;;;;6.23;5.27;;;10.00;1.00;;;;;;4981080;28;20443;-83
2021/11/07 09:24:05;;;;;;;5.47;3.97;;;10.10;1.00;;;;;;5000199;28;20404;-85
2021/11/07 09:26:36;;;;;;;7.00;4.70;;;10.20;1.00;;;;;;4987406;28;20447;-82
2021/11/07 09:29:06;;;;;;;6.70;4.47;;;10.20;1.00;;;;;;5001722;28;20439;-83
2021/11/07 09:34:24;;;;;;;4.83;3.67;;;10.20;1.00;;;;;;4998792;28;20451;-82
2021/11/07 09:37:03;;;;;;;3.97;3.57;;;10.20;1.00;;;;;;4991392;28;20463;-83
2021/11/07 09:39:36;;;;;;;4.40;3.53;;;10.30;1.00;;;;;;4986989;28;20467;-84
2021/11/07 09:45:12;;;;;;;3.90;3.30;;;10.40;1.00;;;;;;4970445;28;20474;-82
2021/11/07 09:47:45;;;;;;;4.93;3.57;;;10.40;1.00;;;;;;4977722;28;20532;-78
2021/11/07 09:50:14;;;;;;;5.27;3.40;;;10.40;1.00;;;;;;4976855;28;21871;-77
2021/11/07 09:52:50;;;;;;;4.90;3.50;;;10.40;1.00;;;;;;4986629;28;20519;-81
2021/11/07 09:55:20;;;;;;;4.30;3.57;;;10.40;1.00;;;;;;4991300;28;20478;-80
2021/11/07 09:57:51;;;;;;;4.30;3.07;;;10.40;1.00;;;;;;4964789;28;20553;-79
2021/11/07 10:00:21;;;;;;;5.27;3.23;;;10.50;1.00;;;;;;4978586;28;20463;-80
2021/11/07 10:02:48;;;;;;;3.93;3.10;;;10.50;1.00;;;;;;4983432;28;20443;-82
2021/11/07 10:05:17;;;;;;;3.93;3.00;;;10.60;1.00;;;;;;4987241;28;20423;-79
2021/11/07 10:07:46;;;;;;;3.67;2.67;;;10.60;1.00;;;;;;4984079;28;20464;-80
2021/11/07 10:10:19;;;;;;;4.20;2.97;;;10.50;1.00;;;;;;4982339;28;20497;-81
2021/11/07 10:12:50;;;;;;;4.87;3.40;;;10.50;1.00;;;;;;4986183;28;20437;-81
2021/11/07 10:15:25;;;;;;;8.60;3.60;;;10.40;1.00;;;;;;4981019;28;20479;-80
2021/11/07 10:17:56;;;;;;;4.67;2.63;;;10.50;1.00;;;;;;4978726;28;20423;-78
2021/11/07 10:20:28;;;;;;;4.83;3.43;;;10.60;1.00;;;;;;4976328;28;20459;-79
2021/11/07 10:23:02;;;;;;;4.27;2.90;;;11.10;1.00;;;;;;4992727;28;20503;-81
2021/11/07 10:25:34;;;;;;;4.00;2.60;;;11.50;1.00;;;;;;4973104;28;20470;-80
2021/11/07 10:28:07;;;;;;;4.43;2.83;;;11.50;1.00;;;;;;4983580;28;20474;-80
2021/11/07 10:30:35;;;;;;;3.83;2.97;;;11.40;1.00;;;;;;4983327;28;20446;-79
2021/11/07 10:33:08;;;;;;;5.60;2.70;;;11.30;1.00;;;;;;4957380;28;20423;-83
2021/11/07 10:36:06;;;;;;;4.30;2.97;;;11.50;1.00;;;;;;4975015;28;23290;-78
2021/11/07 10:41:36;;;;;;;6.80;3.10;;;11.60;1.00;;;;;;4971531;28;20451;-78
2021/11/07 10:44:22;;;;;;;7.47;2.10;;;11.70;1.00;;;;;;4946066;28;20530;-79
2021/11/07 10:47:15;;;;;;;7.77;2.83;;;11.70;1.00;;;;;;4963219;28;20533;-78
2021/11/07 10:52:33;;;;;;;4.10;2.00;;;11.60;1.00;;;;;;4969763;28;21251;-78
2021/11/07 10:55:02;;;;;;;3.90;2.60;;;11.50;1.00;;;;;;4964893;28;20444;-76
2021/11/07 10:57:31;;;;;;;8.70;2.90;;;11.40;1.00;;;;;;4966334;28;20582;-76
2021/11/07 11:00:15;;;;;;;3.20;2.50;;;11.20;1.00;;;;;;4958592;28;21217;-75
2021/11/07 11:02:44;;;;;;;5.60;2.90;;;11.20;1.00;;;;;;4968061;28;20448;-76
2021/11/07 11:05:13;;;;;;;5.10;2.63;;;11.00;1.00;;;;;;4962749;28;20440;-78
2021/11/07 11:07:57;;;;;;;6.20;3.00;;;10.90;1.00;;;;;;4963582;28;20461;-77
2021/11/07 11:10:33;;;;;;;4.47;2.87;;;10.70;1.00;;;;;;4965401;28;20466;-77
2021/11/07 11:19:28;;;;;;;4.40;3.90;;;9.70;1.00;;;;;;4882428;29;21115;-77
2021/11/07 11:22:18;;;;;;;4.30;3.80;;;9.60;1.00;;;;;;4939167;28;21195;-78
2021/11/07 11:25:13;;;;;;;4.57;4.00;;;9.40;1.00;;;;;;4964814;28;20339;-77
2021/11/07 11:27:51;;;;;;;5.28;2.83;;;9.30;1.00;;;;;;4964993;28;20235;-80
2021/11/07 11:30:30;;;;;;;2.63;1.73;;;9.10;1.00;;;;;;4975613;28;20241;-78
2021/11/07 11:32:58;;;;;;;5.70;2.03;;;8.80;1.00;;;;;;4974058;28;20217;-79
2021/11/07 11:35:29;;;;;;;4.68;1.73;;;8.50;1.00;;;;;;4968939;28;20241;-78
2021/11/07 11:38:08;;;;;;;3.45;1.50;;;8.40;1.00;;;;;;4956461;28;20240;-78
2021/11/07 11:40:45;;;;;;;7.25;2.40;;;8.30;1.00;;;;;;4963979;28;20640;-78
2021/11/07 11:43:18;;;;;;;4.00;2.22;;;8.30;1.00;;;;;;4968377;28;20219;-78
2021/11/07 11:45:52;;;;;;;3.50;2.28;;;8.30;1.00;;;;;;4964024;28;20259;-78
2021/11/07 11:49:02;;;;;;;6.55;2.10;;;8.30;1.00;;;;;;4975371;28;20236;-77
2021/11/07 11:51:42;;;;;;;7.25;2.20;;;8.30;1.00;;;;;;4962873;28;20363;-77
2021/11/07 11:57:21;;;;;;;4.82;2.67;;;8.30;1.00;;;;;;4954917;28;20265;-77
2021/11/07 11:59:58;;;;;;;4.85;2.22;;;8.30;1.00;;;;;;4952812;28;20272;-78
2021/11/07 12:02:28;;;;;;;4.55;2.10;;;8.40;1.00;;;;;;4951591;28;20219;-78
2021/11/07 12:05:13;;;;;;;2.40;1.50;;;8.60;1.00;;;;;;4960993;28;20242;-77
2021/11/07 12:07:53;;;;;;;3.05;1.77;;;8.70;1.00;;;;;;4960761;28;20230;-77
2021/11/07 12:10:28;;;;;;;6.30;2.60;;;8.90;1.00;;;;;;4984477;28;21439;-77
2021/11/07 12:12:59;;;;;;;5.15;3.13;;;9.20;1.00;;;;;;4978354;28;20222;-78
2021/11/07 12:15:50;;;;;;;5.33;2.20;;;9.40;1.00;;;;;;4967805;28;20341;-78
2021/11/07 12:18:17;;;;;;;4.78;2.80;;;9.50;1.00;;;;;;4955285;28;20466;-78
2021/11/07 12:20:44;;;;;;;6.10;3.15;;;9.50;1.00;;;;;;4965797;28;20305;-78
2021/11/07 12:23:18;;;;;;;7.77;3.67;;;9.50;1.00;;;;;;4962892;28;20229;-78
2021/11/07 12:25:46;;;;;;;9.63;7.00;;;9.40;1.00;;;;;;4966581;28;20530;-78
2021/11/07 12:28:14;;;;;;;6.23;3.33;;;9.60;1.00;;;;;;4944577;28;20489;-77
2021/11/07 12:30:43;;;;;;;4.25;3.28;;;9.80;1.00;;;;;;4966177;28;20461;-77
2021/11/07 12:33:12;;;;;;;5.00;3.00;;;9.90;1.00;;;;;;4965027;28;20366;-77
2021/11/07 12:35:44;;;;;;;4.13;3.03;;;9.90;1.00;;;;;;4965109;28;20930;-78
2021/11/07 12:41:08;;;;;;;10.20;3.73;;;10.20;1.00;;;;;;4963075;28;20993;-78
2021/11/07 12:43:40;;;;;;;5.43;3.90;;;10.40;1.00;;;;;;4966304;28;20487;-77
2021/11/07 12:46:42;;;;;;;4.43;2.90;;;10.40;1.00;;;;;;4962141;28;20556;-76
2021/11/07 12:49:22;;;;;;;5.80;3.80;;;10.20;1.00;;;;;;4957642;28;20461;-78
2021/11/07 12:51:51;;;;;;;6.33;3.90;;;10.20;1.00;;;;;;4960297;28;20511;-78
2021/11/07 12:54:20;;;;;;;4.17;3.07;;;10.30;1.00;;;;;;4968217;28;20533;-78
2021/11/07 12:56:51;;;;;;;4.00;2.80;;;10.40;1.00;;;;;;4949305;28;20443;-77
2021/11/07 12:59:28;;;;;;;3.90;3.10;;;10.50;1.00;;;;;;4965560;28;20451;-77
2021/11/07 13:02:16;;;;;;;5.28;3.10;;;10.70;1.00;;;;;;4964739;28;20514;-77
2021/11/07 13:04:55;;;;;;;5.90;3.00;;;11.20;1.00;;;;;;4972513;28;20224;-77
2021/11/07 13:07:32;;;;;;;7.57;4.00;;;11.70;1.00;;;;;;4959295;28;21341;-77
2021/11/07 13:10:04;;;;;;;4.93;2.93;;;12.20;1.00;;;;;;4987037;28;20470;-77
2021/11/07 13:12:36;;;;;;;5.90;2.37;;;12.70;1.00;;;;;;4977455;28;20459;-78
2021/11/07 13:15:12;;;;;;;5.33;3.60;;;13.20;1.00;;;;;;4962264;28;22007;-77
2021/11/07 13:21:14;;;;;;;5.77;2.80;;;12.00;1.00;;;;;;4946765;28;20548;-77
2021/11/07 13:23:55;;;;;;;8.20;2.80;;;11.50;1.00;;;;;;4966091;28;20475;-78
2021/11/07 13:29:28;;;;;;;5.33;2.60;;;10.90;1.00;;;;;;4954233;28;20467;-76
2021/11/07 13:32:01;;;;;;;6.80;2.83;;;10.60;1.00;;;;;;4968441;28;20713;-77
2021/11/07 13:34:30;;;;;;;5.10;2.60;;;10.30;1.00;;;;;;4963515;28;20425;-78
2021/11/07 13:36:59;;;;;;;4.40;2.60;;;10.10;1.00;;;;;;4950405;28;20419;-78
2021/11/07 13:39:29;;;;;;;7.00;3.37;;;10.00;1.00;;;;;;4969125;28;20472;-78
2021/11/07 13:42:03;;;;;;;6.87;3.17;;;10.10;1.00;;;;;;4971004;28;20474;-78
2021/11/07 13:44:36;;;;;;;5.80;2.40;;;10.20;1.00;;;;;;4970289;28;20467;-77
2021/11/07 13:47:05;;;;;;;5.33;2.43;;;10.20;1.00;;;;;;4966679;28;20479;-76
2021/11/07 13:49:33;;;;;;;4.95;2.45;;;10.20;1.00;;;;;;4963720;28;20462;-77
2021/11/07 13:52:03;;;;;;;7.03;2.70;;;10.00;1.00;;;;;;4968531;28;20265;-77
2021/11/07 13:54:40;;;;;;;5.65;2.95;;;9.90;1.00;;;;;;4968712;28;20539;-78
2021/11/07 13:57:08;;;;;;;8.93;2.95;;;9.80;1.00;;;;;;4970041;28;21096;-78
2021/11/07 13:59:39;;;;;;;9.10;3.17;;;9.70;1.00;;;;;;4965807;28;20978;-77
2021/11/07 14:02:17;;;;;;;5.55;2.35;;;9.70;1.00;;;;;;4966325;28;20542;-78
2021/11/07 14:04:48;;;;;;;9.52;3.25;;;9.60;1.00;;;;;;4962632;28;20342;-77
2021/11/07 14:07:21;;;;;;;10.65;2.55;;;9.50;1.00;;;;;;4963990;28;20238;-77
2021/11/07 14:10:06;;;;;;;7.53;2.63;;;9.50;1.00;;;;;;4969605;28;20245;-78
2021/11/07 14:12:37;;;;;;;8.93;3.40;;;9.40;1.00;;;;;;4985161;28;20236;-77
2021/11/07 14:15:10;;;;;;;10.25;3.20;;;9.30;1.00;;;;;;4972525;28;21371;-77
2021/11/07 14:17:37;;;;;;;6.63;3.20;;;9.30;1.00;;;;;;4968334;28;20225;-77
2021/11/07 14:20:07;;;;;;;6.10;3.10;;;9.20;1.00;;;;;;4959432;28;21098;-77